Time;durP1;ratioP1;P1;durP2;ratioP2;P2;SDS_P1;SDS_P2;PMS_P1;PMS_P2;Temp;Humidity;BMP_temperature;BMP_pressure;BME280_temperature;BME280_humidity;BME280_pressure;Samples;Min_cycle;Max_cycle;Signal;HPM_P1;HPM_P2
2022/10/02 00:01:59;;;;;;;19.23;4.60;;;;;;;;;;5050070;28;20089;-64
2022/10/02 00:04:28;;;;;;;12.53;3.80;;;;;;;;;;5051872;28;20047;-64
2022/10/02 00:06:56;;;;;;;13.87;3.50;;;;;;;;;;5052586;28;20407;-64
2022/10/02 00:09:26;;;;;;;13.40;3.80;;;;;;;;;;5052148;28;20052;-64
2022/10/02 00:11:55;;;;;;;20.17;3.30;;;;;;;;;;5052009;28;20049;-65
2022/10/02 00:14:22;;;;;;;18.10;3.77;;;;;;;;;;5051891;28;20049;-64
2022/10/02 00:16:51;;;;;;;15.63;3.60;;;;;;;;;;5051945;28;20052;-64
2022/10/02 00:19:17;;;;;;;19.00;4.40;;;;;;;;;;5051664;28;20045;-64
2022/10/02 00:21:54;;;;;;;22.30;4.47;;;;;;;;;;5051755;28;20049;-65
2022/10/02 00:24:36;;;;;;;17.77;4.13;;;;;;;;;;5059807;28;20105;-64
2022/10/02 00:27:14;;;;;;;11.67;3.23;;;;;;;;;;5071789;28;20514;-64
2022/10/02 00:29:51;;;;;;;11.70;2.93;;;;;;;;;;5071840;28;20110;-65
2022/10/02 00:32:32;;;;;;;14.17;3.57;;;;;;;;;;5071499;28;20402;-65
2022/10/02 00:35:04;;;;;;;11.87;3.57;;;;;;;;;;5069710;28;20387;-64
2022/10/02 00:37:51;;;;;;;15.23;3.67;;;;;;;;;;5071782;28;20056;-64
2022/10/02 00:40:36;;;;;;;13.73;3.37;;;;;;;;;;5071340;28;20102;-65
2022/10/02 00:43:12;;;;;;;19.77;3.63;;;;;;;;;;5071577;28;20132;-64
2022/10/02 00:45:47;;;;;;;14.07;3.23;;;;;;;;;;5071188;28;20048;-64
2022/10/02 00:48:40;;;;;;;13.03;2.53;;;;;;;;;;5056698;28;20049;-64
2022/10/02 00:51:24;;;;;;;14.23;3.10;;;;;;;;;;5051559;28;20106;-65
2022/10/02 00:53:50;;;;;;;19.40;3.00;;;;;;;;;;5051310;28;20060;-64
2022/10/02 00:56:19;;;;;;;12.57;2.87;;;;;;;;;;5051349;28;20060;-64
2022/10/02 00:58:48;;;;;;;12.70;3.00;;;;;;;;;;5051383;28;20741;-65
2022/10/02 01:01:17;;;;;;;14.90;3.30;;;;;;;;;;5049883;28;20053;-65
2022/10/02 01:03:52;;;;;;;13.60;3.23;;;;;;;;;;5051343;28;20798;-64
2022/10/02 01:06:18;;;;;;;8.87;3.27;;;;;;;;;;5051232;28;20049;-64
2022/10/02 01:08:44;;;;;;;19.13;3.60;;;;;;;;;;5057840;28;20494;-64
2022/10/02 01:11:12;;;;;;;12.73;4.27;;;;;;;;;;5059709;28;20103;-64
2022/10/02 01:13:39;;;;;;;15.83;4.03;;;;;;;;;;5049796;28;20057;-64
2022/10/02 01:16:08;;;;;;;13.77;3.83;;;;;;;;;;5050921;28;20072;-62
2022/10/02 01:18:35;;;;;;;16.73;3.47;;;;;;;;;;5050876;28;20045;-62
2022/10/02 01:21:04;;;;;;;18.10;3.77;;;;;;;;;;5050561;28;20507;-62
2022/10/02 01:23:36;;;;;;;14.77;3.77;;;;;;;;;;5050538;28;20041;-62
2022/10/02 01:26:02;;;;;;;20.97;4.60;;;;;;;;;;5049896;28;20049;-62
2022/10/02 01:28:28;;;;;;;16.20;3.80;;;;;;;;;;5050447;28;20052;-62
2022/10/02 01:30:57;;;;;;;17.60;4.43;;;;;;;;;;5051206;28;20424;-62
2022/10/02 01:33:23;;;;;;;13.63;3.50;;;;;;;;;;5052828;28;20079;-62
2022/10/02 01:35:49;;;;;;;17.60;4.37;;;;;;;;;;5070773;28;20052;-62
2022/10/02 01:38:17;;;;;;;17.50;5.03;;;;;;;;;;5070405;28;20107;-62
2022/10/02 01:40:44;;;;;;;15.57;3.67;;;;;;;;;;5070263;28;20514;-62
2022/10/02 01:43:22;;;;;;;24.97;5.37;;;;;;;;;;5070024;28;20059;-62
2022/10/02 01:46:03;;;;;;;21.70;4.20;;;;;;;;;;5070742;28;20399;-62
2022/10/02 01:48:46;;;;;;;16.83;4.13;;;;;;;;;;5070248;28;20060;-62
2022/10/02 01:51:22;;;;;;;20.60;4.70;;;;;;;;;;5068485;28;20056;-63
2022/10/02 01:53:53;;;;;;;17.23;4.10;;;;;;;;;;5070355;28;20052;-63
2022/10/02 01:56:24;;;;;;;20.53;4.07;;;;;;;;;;5070277;28;20051;-64
2022/10/02 01:59:04;;;;;;;22.07;4.00;;;;;;;;;;5064363;28;20041;-64
2022/10/02 02:01:48;;;;;;;20.17;4.70;;;;;;;;;;5048391;28;20052;-64
2022/10/02 02:04:29;;;;;;;22.90;5.13;;;;;;;;;;5049948;28;20114;-64
2022/10/02 02:07:13;;;;;;;20.77;4.50;;;;;;;;;;5048512;28;20083;-64
2022/10/02 02:09:42;;;;;;;18.97;4.47;;;;;;;;;;5048635;28;20049;-64
2022/10/02 02:12:14;;;;;;;18.17;4.17;;;;;;;;;;5049451;28;20527;-64
2022/10/02 02:14:46;;;;;;;15.87;4.40;;;;;;;;;;5048680;28;20060;-64
2022/10/02 02:17:16;;;;;;;19.60;4.93;;;;;;;;;;5049224;28;20491;-64
2022/10/02 02:19:45;;;;;;;15.30;4.20;;;;;;;;;;5049740;28;20407;-64
2022/10/02 02:22:15;;;;;;;16.63;4.13;;;;;;;;;;5049654;28;20048;-64
2022/10/02 02:24:41;;;;;;;19.27;4.40;;;;;;;;;;5050536;28;20052;-64
2022/10/02 02:27:09;;;;;;;20.47;4.27;;;;;;;;;;5068161;28;20045;-64
2022/10/02 02:29:37;;;;;;;20.13;4.77;;;;;;;;;;5068533;28;20055;-64
2022/10/02 02:32:06;;;;;;;24.27;4.13;;;;;;;;;;5069434;28;20048;-64
2022/10/02 02:34:34;;;;;;;18.53;4.33;;;;;;;;;;5069304;28;20163;-64
2022/10/02 02:37:15;;;;;;;17.37;3.43;;;;;;;;;;5069191;28;20101;-64
2022/10/02 02:40:03;;;;;;;18.57;3.50;;;;;;;;;;5069144;28;20568;-64
2022/10/02 02:42:32;;;;;;;15.63;3.17;;;;;;;;;;5069188;28;20067;-64
2022/10/02 02:45:09;;;;;;;17.40;3.57;;;;;;;;;;5069183;28;20049;-64
2022/10/02 02:47:47;;;;;;;14.10;2.70;;;;;;;;;;5069022;28;20088;-64
2022/10/02 02:50:20;;;;;;;13.10;2.73;;;;;;;;;;5068901;28;20452;-64
2022/10/02 02:52:50;;;;;;;12.95;2.75;;;;;;;;;;5050126;28;20072;-64
2022/10/02 02:55:22;;;;;;;8.40;2.47;;;;;;;;;;5049009;28;20049;-64
2022/10/02 02:57:48;;;;;;;13.23;2.50;;;;;;;;;;5068948;28;20044;-64
2022/10/02 03:00:15;;;;;;;15.17;3.10;;;;;;;;;;5068493;28;20049;-64
2022/10/02 03:02:41;;;;;;;10.63;1.80;;;;;;;;;;5067831;28;20135;-63
2022/10/02 03:05:12;;;;;;;10.60;2.27;;;;;;;;;;5068883;28;20044;-63
2022/10/02 03:07:38;;;;;;;12.93;2.50;;;;;;;;;;5068152;28;20044;-64
2022/10/02 03:10:16;;;;;;;12.50;2.20;;;;;;;;;;5069059;28;20453;-64
2022/10/02 03:12:45;;;;;;;11.43;2.43;;;;;;;;;;5067758;28;20068;-64
2022/10/02 03:15:18;;;;;;;12.77;2.23;;;;;;;;;;5068497;28;20048;-64
2022/10/02 03:17:52;;;;;;;13.93;2.83;;;;;;;;;;5068462;28;21202;-64
2022/10/02 03:20:38;;;;;;;11.33;2.20;;;;;;;;;;5067632;28;20056;-64
2022/10/02 03:23:10;;;;;;;12.13;2.77;;;;;;;;;;5067239;28;20062;-64
2022/10/02 03:25:42;;;;;;;9.27;1.70;;;;;;;;;;5065787;28;20048;-64
2022/10/02 03:28:08;;;;;;;15.40;4.67;;;;;;;;;;5048645;28;20064;-64
2022/10/02 03:30:35;;;;;;;13.27;2.40;;;;;;;;;;5048448;28;20132;-64
2022/10/02 03:33:03;;;;;;;12.73;2.20;;;;;;;;;;5047880;28;20114;-64
2022/10/02 03:35:30;;;;;;;11.00;2.47;;;;;;;;;;5047841;28;20044;-64
2022/10/02 03:37:57;;;;;;;15.67;2.83;;;;;;;;;;5046799;28;20107;-64
2022/10/02 03:40:24;;;;;;;16.37;3.07;;;;;;;;;;5048143;28;20041;-64
2022/10/02 03:42:51;;;;;;;10.77;2.63;;;;;;;;;;5048150;28;20048;-65
2022/10/02 03:45:20;;;;;;;9.40;2.07;;;;;;;;;;5047828;28;20407;-64
2022/10/02 03:47:46;;;;;;;10.60;2.77;;;;;;;;;;5048500;28;20049;-64
2022/10/02 03:50:13;;;;;;;14.13;2.63;;;;;;;;;;5048178;28;20044;-64
2022/10/02 03:52:39;;;;;;;18.47;4.23;;;;;;;;;;5046878;28;20079;-64
2022/10/02 03:55:13;;;;;;;15.53;3.57;;;;;;;;;;5048393;28;20049;-64
2022/10/02 03:57:40;;;;;;;15.57;2.93;;;;;;;;;;5048956;28;20145;-64
2022/10/02 04:00:08;;;;;;;14.20;3.27;;;;;;;;;;5047921;28;20403;-64
2022/10/02 04:02:39;;;;;;;10.40;2.97;;;;;;;;;;5048290;28;20052;-64
2022/10/02 04:05:05;;;;;;;19.93;2.57;;;;;;;;;;5048019;28;20053;-64
2022/10/02 04:07:35;;;;;;;13.40;3.80;;;;;;;;;;5047992;28;20558;-64
2022/10/02 04:10:13;;;;;;;20.77;3.23;;;;;;;;;;5047797;28;20053;-64
2022/10/02 04:12:48;;;;;;;20.87;4.60;;;;;;;;;;5048039;28;20498;-64
2022/10/02 04:15:14;;;;;;;21.33;3.57;;;;;;;;;;5047845;28;20056;-64
2022/10/02 04:17:43;;;;;;;19.53;3.93;;;;;;;;;;5047522;28;20053;-64
2022/10/02 04:20:13;;;;;;;20.73;3.77;;;;;;;;;;5047616;28;20049;-64
2022/10/02 04:22:42;;;;;;;18.00;3.90;;;;;;;;;;5047069;28;20045;-64
2022/10/02 04:25:25;;;;;;;26.53;5.30;;;;;;;;;;5055305;28;20501;-64
2022/10/02 04:28:14;;;;;;;18.70;4.55;;;;;;;;;;5068048;28;20056;-64
2022/10/02 04:30:40;;;;;;;19.70;4.27;;;;;;;;;;5067496;28;20045;-64
2022/10/02 04:33:13;;;;;;;19.57;4.37;;;;;;;;;;5065585;28;20048;-64
2022/10/02 04:35:42;;;;;;;21.77;4.28;;;;;;;;;;5067636;28;20049;-64
2022/10/02 04:38:31;;;;;;;27.07;6.03;;;;;;;;;;5066720;28;20437;-64
2022/10/02 04:41:11;;;;;;;23.77;4.70;;;;;;;;;;5068086;28;20110;-64
2022/10/02 04:43:52;;;;;;;22.30;4.23;;;;;;;;;;5067470;28;20048;-64
2022/10/02 04:46:18;;;;;;;29.23;5.20;;;;;;;;;;5067113;28;20052;-64
2022/10/02 04:48:57;;;;;;;20.03;5.13;;;;;;;;;;5067324;28;20044;-64
2022/10/02 04:51:33;;;;;;;21.63;5.93;;;;;;;;;;5070489;28;20090;-64
2022/10/02 04:54:11;;;;;;;19.53;4.23;;;;;;;;;;5071060;28;20057;-64
2022/10/02 04:56:56;;;;;;;19.50;5.83;;;;;;;;;;5067876;28;20437;-64
2022/10/02 04:59:31;;;;;;;20.97;4.43;;;;;;;;;;5070295;28;20053;-64
2022/10/02 05:02:00;;;;;;;25.13;5.80;;;;;;;;;;5070825;28;20044;-64
2022/10/02 05:04:32;;;;;;;21.80;5.47;;;;;;;;;;5070731;28;20045;-64
2022/10/02 05:06:59;;;;;;;24.40;5.47;;;;;;;;;;5071343;28;20097;-64
2022/10/02 05:09:29;;;;;;;18.97;5.97;;;;;;;;;;5070198;28;20056;-64
2022/10/02 05:12:13;;;;;;;18.77;6.30;;;;;;;;;;5070359;28;20119;-64
2022/10/02 05:14:42;;;;;;;27.37;6.20;;;;;;;;;;5070309;28;20506;-64
2022/10/02 05:17:27;;;;;;;20.83;6.07;;;;;;;;;;5070309;28;20055;-64
2022/10/02 05:20:12;;;;;;;21.33;5.83;;;;;;;;;;5069005;28;20407;-64
2022/10/02 05:22:38;;;;;;;30.57;8.67;;;;;;;;;;5070598;28;20056;-64
2022/10/02 05:25:10;;;;;;;28.20;6.67;;;;;;;;;;5063900;28;20041;-64
2022/10/02 05:27:55;;;;;;;20.40;5.37;;;;;;;;;;5059943;28;20045;-64
2022/10/02 05:30:21;;;;;;;22.57;5.13;;;;;;;;;;5058796;28;20067;-64
2022/10/02 05:33:02;;;;;;;27.67;6.30;;;;;;;;;;5060697;28;20048;-64
2022/10/02 05:35:47;;;;;;;27.27;5.40;;;;;;;;;;5059481;28;20036;-64
2022/10/02 05:38:22;;;;;;;28.20;5.17;;;;;;;;;;5059390;28;20052;-64
2022/10/02 05:40:51;;;;;;;24.00;5.37;;;;;;;;;;5058577;28;20040;-65
2022/10/02 05:43:28;;;;;;;25.30;4.43;;;;;;;;;;5060019;28;20406;-64
2022/10/02 05:46:07;;;;;;;29.43;5.67;;;;;;;;;;5059074;28;20399;-64
2022/10/02 05:48:41;;;;;;;28.17;5.73;;;;;;;;;;5058751;28;20033;-64
2022/10/02 05:51:13;;;;;;;24.15;5.20;;;;;;;;;;5057701;28;20041;-64
2022/10/02 05:53:43;;;;;;;24.10;4.90;;;;;;;;;;5059605;28;20036;-64
2022/10/02 05:56:15;;;;;;;20.63;4.70;;;;;;;;;;5060784;28;20051;-64
2022/10/02 05:58:49;;;;;;;22.43;5.03;;;;;;;;;;5059274;28;20053;-65
2022/10/02 06:01:19;;;;;;;26.03;4.57;;;;;;;;;;5058739;28;20522;-62
2022/10/02 06:03:47;;;;;;;24.70;6.47;;;;;;;;;;5058586;28;20044;-65
2022/10/02 06:06:16;;;;;;;22.33;4.70;;;;;;;;;;5058122;28;20081;-64
2022/10/02 06:08:45;;;;;;;28.23;5.93;;;;;;;;;;5058692;28;20056;-63
2022/10/02 06:11:31;;;;;;;19.37;5.10;;;;;;;;;;5060108;28;20067;-64
2022/10/02 06:14:00;;;;;;;19.00;4.97;;;;;;;;;;5058551;28;20525;-64
2022/10/02 06:16:26;;;;;;;19.30;4.43;;;;;;;;;;5058076;28;20413;-63
2022/10/02 06:19:12;;;;;;;18.73;5.63;;;;;;;;;;5059284;28;20457;-64
2022/10/02 06:21:53;;;;;;;26.20;4.70;;;;;;;;;;5058864;28;20044;-64
2022/10/02 06:24:32;;;;;;;18.27;4.27;;;;;;;;;;5069608;28;20102;-65
2022/10/02 06:27:02;;;;;;;19.70;4.90;;;;;;;;;;5049628;28;20449;-64
2022/10/02 06:29:32;;;;;;;19.93;4.20;;;;;;;;;;5049579;28;20049;-64
2022/10/02 06:32:14;;;;;;;25.93;4.87;;;;;;;;;;5049475;28;20049;-63
2022/10/02 06:34:40;;;;;;;23.30;4.73;;;;;;;;;;5048668;28;20098;-64
2022/10/02 06:37:18;;;;;;;20.67;4.73;;;;;;;;;;5049564;28;20053;-64
2022/10/02 06:39:47;;;;;;;26.87;5.33;;;;;;;;;;5049242;28;20079;-63
2022/10/02 06:42:32;;;;;;;23.47;5.00;;;;;;;;;;5047891;28;20052;-64
2022/10/02 06:45:02;;;;;;;19.83;5.50;;;;;;;;;;5049360;28;20049;-64
2022/10/02 06:47:39;;;;;;;21.97;4.83;;;;;;;;;;5048688;28;20671;-64
2022/10/02 06:50:18;;;;;;;24.67;4.23;;;;;;;;;;5054446;28;20040;-64
2022/10/02 06:53:03;;;;;;;17.20;4.13;;;;;;;;;;5068826;28;20044;-65
2022/10/02 06:55:39;;;;;;;16.13;4.37;;;;;;;;;;5059838;28;20045;-63
2022/10/02 06:58:21;;;;;;;29.77;4.93;;;;;;;;;;5049288;28;20427;-63
2022/10/02 07:01:10;;;;;;;19.83;4.03;;;;;;;;;;5049099;28;20526;-64
2022/10/02 07:03:49;;;;;;;20.90;4.03;;;;;;;;;;5048299;28;20049;-64
2022/10/02 07:06:15;;;;;;;21.07;3.90;;;;;;;;;;5058795;28;20106;-64
2022/10/02 07:08:49;;;;;;;13.93;3.57;;;;;;;;;;5056296;28;20064;-63
2022/10/02 07:11:31;;;;;;;19.30;3.37;;;;;;;;;;5058083;28;20130;-64
2022/10/02 07:13:58;;;;;;;14.70;3.10;;;;;;;;;;5055153;28;20709;-64
2022/10/02 07:16:53;;;;;;;15.83;3.27;;;;;;;;;;5057594;28;20048;-63
2022/10/02 07:19:25;;;;;;;20.03;3.67;;;;;;;;;;5019993;28;20504;-64
2022/10/02 07:22:10;;;;;;;13.73;3.30;;;;;;;;;;5056738;28;20048;-64
2022/10/02 07:24:44;;;;;;;19.50;3.47;;;;;;;;;;5057335;28;20123;-64
2022/10/02 07:27:19;;;;;;;16.07;3.67;;;;;;;;;;5058928;28;20067;-64
2022/10/02 07:30:05;;;;;;;21.03;3.07;;;;;;;;;;5057396;28;20048;-64
2022/10/02 07:32:34;;;;;;;20.73;5.37;;;;;;;;;;5059468;28;20452;-63
2022/10/02 07:35:01;;;;;;;20.37;3.33;;;;;;;;;;5056146;28;20051;-63
2022/10/02 07:37:40;;;;;;;20.43;3.23;;;;;;;;;;5059984;28;20517;-64
2022/10/02 07:40:20;;;;;;;14.97;3.73;;;;;;;;;;5053826;28;20052;-63
2022/10/02 07:42:49;;;;;;;15.77;3.70;;;;;;;;;;5059267;28;20187;-64
2022/10/02 07:45:34;;;;;;;14.47;3.07;;;;;;;;;;5059364;28;20040;-64
2022/10/02 07:48:06;;;;;;;17.70;3.27;;;;;;;;;;5057772;28;20044;-64
2022/10/02 07:50:51;;;;;;;16.07;2.60;;;;;;;;;;5057254;28;20040;-63
2022/10/02 07:53:37;;;;;;;18.30;3.43;;;;;;;;;;5055436;28;20037;-63
2022/10/02 07:56:05;;;;;;;21.17;3.63;;;;;;;;;;5059090;28;20144;-64
2022/10/02 07:58:36;;;;;;;18.03;3.17;;;;;;;;;;5060150;28;20045;-64
2022/10/02 08:01:07;;;;;;;13.17;2.77;;;;;;;;;;5050139;28;20037;-63
2022/10/02 08:03:44;;;;;;;15.57;2.73;;;;;;;;;;5054133;28;20045;-63
2022/10/02 08:06:10;;;;;;;16.53;3.43;;;;;;;;;;5057499;28;20041;-64
2022/10/02 08:08:42;;;;;;;17.73;3.43;;;;;;;;;;5054339;28;20044;-64
2022/10/02 08:11:31;;;;;;;18.60;3.03;;;;;;;;;;5056533;28;20080;-64
2022/10/02 08:14:01;;;;;;;17.07;2.70;;;;;;;;;;5054233;28;20049;-64
2022/10/02 08:16:31;;;;;;;17.53;2.63;;;;;;;;;;5055916;28;20041;-63
2022/10/02 08:19:01;;;;;;;17.47;2.90;;;;;;;;;;5051364;28;20483;-64
2022/10/02 08:21:30;;;;;;;16.53;3.10;;;;;;;;;;5052670;28;20158;-64
2022/10/02 08:24:05;;;;;;;13.90;2.80;;;;;;;;;;5059526;28;20399;-64
2022/10/02 08:26:36;;;;;;;13.87;2.70;;;;;;;;;;5062585;28;20049;-63
2022/10/02 08:29:04;;;;;;;12.73;2.57;;;;;;;;;;5063626;28;20239;-63
2022/10/02 08:31:30;;;;;;;9.73;2.30;;;;;;;;;;5061987;28;20599;-64
2022/10/02 08:33:56;;;;;;;16.80;3.80;;;;;;;;;;5059431;28;20041;-63
2022/10/02 08:36:32;;;;;;;10.33;2.33;;;;;;;;;;5058422;28;20044;-63
2022/10/02 08:39:08;;;;;;;12.57;2.10;;;;;;;;;;5057296;28;20056;-64
2022/10/02 08:41:52;;;;;;;13.00;2.57;;;;;;;;;;5066133;28;20406;-63
2022/10/02 08:44:24;;;;;;;13.30;2.40;;;;;;;;;;5071260;28;20060;-63
2022/10/02 08:46:55;;;;;;;11.73;2.27;;;;;;;;;;5070799;28;20036;-63
2022/10/02 08:49:47;;;;;;;11.47;2.20;;;;;;;;;;5071184;28;20045;-64
2022/10/02 08:52:28;;;;;;;9.00;2.17;;;;;;;;;;5069525;28;20052;-63
2022/10/02 08:55:05;;;;;;;15.83;2.37;;;;;;;;;;5068937;28;20402;-63
2022/10/02 08:57:51;;;;;;;11.97;2.43;;;;;;;;;;5071014;28;20497;-63
2022/10/02 09:00:23;;;;;;;16.80;3.47;;;;;;;;;;5068344;28;20470;-63
2022/10/02 09:03:07;;;;;;;12.70;3.40;;;;;;;;;;5068779;28;20044;-63
2022/10/02 09:06:01;;;;;;;11.90;2.40;;;;;;;;;;5065027;28;20051;-63
2022/10/02 09:08:46;;;;;;;7.83;2.17;;;;;;;;;;5050296;28;20049;-63
2022/10/02 09:11:12;;;;;;;10.43;1.97;;;;;;;;;;5055486;28;20056;-63
2022/10/02 09:14:01;;;;;;;15.97;3.23;;;;;;;;;;5068657;28;20048;-63
2022/10/02 09:16:29;;;;;;;11.93;2.07;;;;;;;;;;5070499;28;20087;-64
2022/10/02 09:18:58;;;;;;;11.57;2.40;;;;;;;;;;5070161;28;20040;-63
2022/10/02 09:21:43;;;;;;;11.27;3.57;;;;;;;;;;5070468;28;20044;-63
2022/10/02 09:24:09;;;;;;;13.30;2.70;;;;;;;;;;5055249;28;20056;-63
2022/10/02 09:26:44;;;;;;;9.97;2.13;;;;;;;;;;5049848;28;20445;-63
2022/10/02 09:29:27;;;;;;;13.57;2.37;;;;;;;;;;5060823;28;20052;-63
2022/10/02 09:31:53;;;;;;;13.38;2.83;;;;;;;;;;5067207;28;20406;-63
2022/10/02 09:34:38;;;;;;;16.13;2.57;;;;;;;;;;5050018;28;20507;-63
2022/10/02 09:37:05;;;;;;;13.57;3.27;;;;;;;;;;5066780;28;20079;-63
2022/10/02 09:39:43;;;;;;;8.23;1.80;;;;;;;;;;5068259;28;20094;-63
2022/10/02 09:42:24;;;;;;;13.47;2.30;;;;;;;;;;5059281;28;20052;-63
2022/10/02 09:45:08;;;;;;;12.00;2.43;;;;;;;;;;5068677;28;20052;-63
2022/10/02 09:48:03;;;;;;;12.53;2.83;;;;;;;;;;5068606;28;20053;-63
2022/10/02 09:50:48;;;;;;;10.57;2.17;;;;;;;;;;5068354;28;20064;-63
2022/10/02 09:53:27;;;;;;;9.53;2.03;;;;;;;;;;5068262;28;20466;-63
2022/10/02 09:56:12;;;;;;;18.27;3.17;;;;;;;;;;5067797;28;20712;-63
2022/10/02 09:58:42;;;;;;;10.77;2.20;;;;;;;;;;5048946;28;20110;-63
2022/10/02 10:01:18;;;;;;;8.67;2.20;;;;;;;;;;5057694;28;20063;-63
2022/10/02 10:04:15;;;;;;;12.07;3.53;;;;;;;;;;5069661;28;20087;-63
2022/10/02 10:07:00;;;;;;;11.93;2.60;;;;;;;;;;5069511;28;20056;-63
2022/10/02 10:09:28;;;;;;;11.73;2.40;;;;;;;;;;5069555;28;20418;-63
2022/10/02 10:11:54;;;;;;;9.53;2.00;;;;;;;;;;5069644;28;20048;-63
2022/10/02 10:14:40;;;;;;;10.80;2.20;;;;;;;;;;5060848;28;20517;-63
2022/10/02 10:17:07;;;;;;;11.50;2.10;;;;;;;;;;5049500;28;20102;-63
2022/10/02 10:19:52;;;;;;;15.50;2.80;;;;;;;;;;5048206;28;20498;-63
2022/10/02 10:22:18;;;;;;;11.37;2.00;;;;;;;;;;5049661;28;20417;-62
2022/10/02 10:24:50;;;;;;;13.47;2.37;;;;;;;;;;5049236;28;20053;-63
2022/10/02 10:27:29;;;;;;;13.53;2.23;;;;;;;;;;5049918;28;20506;-63
2022/10/02 10:30:13;;;;;;;6.50;1.60;;;;;;;;;;5061114;28;20048;-63
2022/10/02 10:32:50;;;;;;;7.73;2.03;;;;;;;;;;5051306;28;20056;-63
2022/10/02 10:35:18;;;;;;;9.60;2.10;;;;;;;;;;5049278;28;20040;-63
2022/10/02 10:40:58;;;;;;;8.57;1.73;;;;;;;;;;5049375;28;20041;-62
2022/10/02 10:43:43;;;;;;;13.17;1.90;;;;;;;;;;5049294;28;20422;-62
2022/10/02 10:46:18;;;;;;;7.83;2.00;;;;;;;;;;5048780;28;20521;-62
2022/10/02 10:49:03;;;;;;;8.67;2.00;;;;;;;;;;5054463;28;20048;-62
2022/10/02 10:51:34;;;;;;;10.60;2.23;;;;;;;;;;5068825;28;20153;-62
2022/10/02 10:54:21;;;;;;;11.50;2.30;;;;;;;;;;5058743;28;20080;-62
2022/10/02 10:57:07;;;;;;;7.97;1.70;;;;;;;;;;5063761;28;20102;-62
2022/10/02 10:59:48;;;;;;;7.30;2.30;;;;;;;;;;5066313;28;20048;-62
2022/10/02 11:02:22;;;;;;;10.17;2.03;;;;;;;;;;5068490;28;20048;-62
2022/10/02 11:04:56;;;;;;;10.33;2.33;;;;;;;;;;5067600;28;20048;-62
2022/10/02 11:07:33;;;;;;;10.47;2.03;;;;;;;;;;5050355;28;20067;-62
2022/10/02 11:10:04;;;;;;;6.67;1.53;;;;;;;;;;5049132;28;20052;-62
2022/10/02 11:12:38;;;;;;;14.47;2.33;;;;;;;;;;5048042;28;20059;-61
2022/10/02 11:15:23;;;;;;;11.77;2.07;;;;;;;;;;5048451;28;20135;-62
2022/10/02 11:18:08;;;;;;;11.67;2.30;;;;;;;;;;5065891;28;20048;-61
2022/10/02 11:20:52;;;;;;;12.87;1.93;;;;;;;;;;5067342;28;20041;-61
2022/10/02 11:23:29;;;;;;;8.90;1.83;;;;;;;;;;5054733;28;20530;-61
2022/10/02 11:26:04;;;;;;;9.87;2.23;;;;;;;;;;5049924;28;20049;-61
2022/10/02 11:28:32;;;;;;;11.77;2.00;;;;;;;;;;5048315;28;20055;-61
2022/10/02 11:30:58;;;;;;;9.43;2.57;;;;;;;;;;5060256;28;20045;-61
2022/10/02 11:33:28;;;;;;;10.40;2.23;;;;;;;;;;5047670;28;20106;-61
2022/10/02 11:35:57;;;;;;;14.57;2.07;;;;;;;;;;5065786;28;20049;-61
2022/10/02 11:38:31;;;;;;;7.07;1.90;;;;;;;;;;5065198;28;20044;-61
2022/10/02 11:40:58;;;;;;;9.93;2.10;;;;;;;;;;5057596;28;20052;-61
2022/10/02 11:43:42;;;;;;;12.97;2.20;;;;;;;;;;5057240;28;20084;-61
2022/10/02 11:46:27;;;;;;;13.27;2.43;;;;;;;;;;5058058;28;20061;-61
2022/10/02 11:49:19;;;;;;;9.83;2.33;;;;;;;;;;5063060;28;20044;-61
2022/10/02 11:51:45;;;;;;;10.03;2.17;;;;;;;;;;5066639;28;20090;-61
2022/10/02 11:54:11;;;;;;;7.00;1.93;;;;;;;;;;5066411;28;20529;-61
2022/10/02 11:56:37;;;;;;;10.33;1.90;;;;;;;;;;5062092;28;20076;-61
2022/10/02 11:59:22;;;;;;;10.50;2.63;;;;;;;;;;5071177;28;20056;-61
2022/10/02 12:02:01;;;;;;;10.67;2.27;;;;;;;;;;5058785;28;20037;-61
2022/10/02 12:04:30;;;;;;;10.77;2.57;;;;;;;;;;5070815;28;20529;-61
2022/10/02 12:07:05;;;;;;;8.03;2.07;;;;;;;;;;5071359;28;20045;-61
2022/10/02 12:09:40;;;;;;;10.40;1.80;;;;;;;;;;5071781;28;20045;-61
2022/10/02 12:12:15;;;;;;;12.13;2.30;;;;;;;;;;5072695;28;20052;-61
2022/10/02 12:14:54;;;;;;;12.30;2.10;;;;;;;;;;5051299;28;20052;-61
2022/10/02 12:17:32;;;;;;;6.67;1.50;;;;;;;;;;5068763;28;20174;-61
2022/10/02 12:28:57;;;;;;;10.73;2.47;;;;;;;;;;5051405;28;19921;-60
2022/10/02 12:31:28;;;;;;;11.77;1.83;;;;;;;;;;5068078;28;20451;-60
2022/10/02 12:34:13;;;;;;;6.47;2.00;;;;;;;;;;5071384;28;20175;-60
2022/10/02 12:36:55;;;;;;;9.23;1.80;;;;;;;;;;5070751;28;20048;-60
2022/10/02 12:39:30;;;;;;;10.23;2.20;;;;;;;;;;5071486;28;20056;-60
2022/10/02 12:41:59;;;;;;;10.77;2.50;;;;;;;;;;5069477;28;20048;-60
2022/10/02 12:44:43;;;;;;;9.10;1.87;;;;;;;;;;5070554;28;20400;-60
2022/10/02 12:47:22;;;;;;;8.10;2.03;;;;;;;;;;5063725;28;20107;-61
2022/10/02 12:49:49;;;;;;;11.17;2.63;;;;;;;;;;5051247;28;20581;-61
2022/10/02 12:52:34;;;;;;;10.47;3.10;;;;;;;;;;5051206;28;20096;-61
2022/10/02 12:55:19;;;;;;;10.03;2.77;;;;;;;;;;5050847;28;20108;-60
2022/10/02 12:57:51;;;;;;;13.90;2.33;;;;;;;;;;5068549;28;20055;-60
2022/10/02 13:00:18;;;;;;;9.80;2.53;;;;;;;;;;5070781;28;20040;-61
2022/10/02 13:03:04;;;;;;;6.50;2.00;;;;;;;;;;5071182;28;20048;-60
2022/10/02 13:05:50;;;;;;;7.03;2.30;;;;;;;;;;5068054;28;20044;-60
2022/10/02 13:08:25;;;;;;;10.50;2.10;;;;;;;;;;5068908;28;20045;-60
2022/10/02 13:11:04;;;;;;;10.73;2.10;;;;;;;;;;5070172;28;20055;-60
2022/10/02 13:13:34;;;;;;;10.10;2.20;;;;;;;;;;5070736;28;20170;-60
2022/10/02 13:16:04;;;;;;;9.90;2.27;;;;;;;;;;5068540;28;20098;-60
2022/10/02 13:18:33;;;;;;;8.97;2.37;;;;;;;;;;5070526;28;20127;-60
2022/10/02 13:21:04;;;;;;;9.83;2.30;;;;;;;;;;5064708;28;20867;-60
2022/10/02 13:23:49;;;;;;;11.77;2.97;;;;;;;;;;5050180;28;20152;-60
2022/10/02 13:26:29;;;;;;;9.67;2.00;;;;;;;;;;5050857;28;20044;-61
2022/10/02 13:28:58;;;;;;;9.93;2.00;;;;;;;;;;5050337;28;20045;-60
2022/10/02 13:31:35;;;;;;;11.48;1.90;;;;;;;;;;5050585;28;20048;-60
2022/10/02 13:34:10;;;;;;;10.37;2.60;;;;;;;;;;5049961;28;20136;-61
2022/10/02 13:36:39;;;;;;;6.68;1.90;;;;;;;;;;5049729;28;20052;-60
2022/10/02 13:39:11;;;;;;;7.00;1.80;;;;;;;;;;5051038;28;20499;-60
2022/10/02 13:42:04;;;;;;;6.75;1.60;;;;;;;;;;5048705;28;20052;-61
2022/10/02 13:44:56;;;;;;;8.63;1.87;;;;;;;;;;5041490;28;20152;-60
2022/10/02 13:47:40;;;;;;;9.20;2.10;;;;;;;;;;5051317;28;20295;-61
2022/10/02 13:50:10;;;;;;;7.80;1.73;;;;;;;;;;5050686;28;20073;-61
2022/10/02 13:52:39;;;;;;;7.60;2.17;;;;;;;;;;5049825;28;20041;-61
2022/10/02 13:55:05;;;;;;;8.00;2.00;;;;;;;;;;5055629;28;20052;-61
2022/10/02 13:57:38;;;;;;;10.73;2.63;;;;;;;;;;5069444;28;20062;-61
2022/10/02 14:00:13;;;;;;;10.25;1.90;;;;;;;;;;5068714;28;20071;-61
2022/10/02 14:02:39;;;;;;;7.10;2.20;;;;;;;;;;5061438;28;20509;-61
2022/10/02 14:05:12;;;;;;;8.97;2.07;;;;;;;;;;5049880;28;20088;-61
2022/10/02 14:07:53;;;;;;;13.63;2.17;;;;;;;;;;5051254;28;20089;-61
2022/10/02 14:10:38;;;;;;;9.43;2.17;;;;;;;;;;5065373;28;20400;-61
2022/10/02 14:13:30;;;;;;;11.07;1.95;;;;;;;;;;5050276;28;20052;-61
2022/10/02 14:16:14;;;;;;;9.05;1.67;;;;;;;;;;5057583;28;20461;-61
2022/10/02 14:18:41;;;;;;;10.60;2.35;;;;;;;;;;5055189;28;20576;-61
2022/10/02 14:21:12;;;;;;;9.40;1.80;;;;;;;;;;5063221;28;20502;-61
2022/10/02 14:23:56;;;;;;;7.30;2.13;;;;;;;;;;5068392;28;20202;-60
2022/10/02 14:26:32;;;;;;;7.45;2.22;;;;;;;;;;5051660;28;20060;-61
2022/10/02 14:29:04;;;;;;;7.57;1.67;;;;;;;;;;5064928;28;20127;-61
2022/10/02 14:31:36;;;;;;;8.85;2.08;;;;;;;;;;5066689;28;20052;-61
2022/10/02 14:34:13;;;;;;;9.03;1.80;;;;;;;;;;5060844;28;20140;-61
2022/10/02 14:36:49;;;;;;;7.07;2.00;;;;;;;;;;5060451;28;20040;-61
2022/10/02 14:39:30;;;;;;;8.70;2.15;;;;;;;;;;5067724;28;20052;-61
2022/10/02 14:42:00;;;;;;;7.65;2.10;;;;;;;;;;5065704;28;20053;-61
2022/10/02 14:44:42;;;;;;;9.23;1.92;;;;;;;;;;5067908;28;20060;-61
2022/10/02 14:47:32;;;;;;;10.60;1.98;;;;;;;;;;5067917;28;20189;-61
2022/10/02 14:50:13;;;;;;;9.57;2.83;;;;;;;;;;5064563;28;20041;-61
2022/10/02 14:52:56;;;;;;;7.30;1.73;;;;;;;;;;5048570;28;20040;-61
2022/10/02 14:55:42;;;;;;;11.20;2.33;;;;;;;;;;5048367;28;20049;-61
2022/10/02 14:58:19;;;;;;;10.27;2.25;;;;;;;;;;5056640;28;20052;-61
2022/10/02 15:01:04;;;;;;;9.75;2.42;;;;;;;;;;5053275;28;20033;-61
2022/10/02 15:03:39;;;;;;;8.25;1.98;;;;;;;;;;5047692;28;20558;-61
2022/10/02 15:06:20;;;;;;;7.03;2.33;;;;;;;;;;5054637;28;20052;-61
2022/10/02 15:09:06;;;;;;;9.63;2.15;;;;;;;;;;5051725;28;20357;-61
2022/10/02 15:11:35;;;;;;;6.70;1.85;;;;;;;;;;5054033;28;20510;-61
2022/10/02 15:14:06;;;;;;;6.93;1.90;;;;;;;;;;5065585;28;20063;-61
2022/10/02 15:19:32;;;;;;;7.10;1.80;;;;;;;;;;5064725;28;20457;-61
2022/10/02 15:22:06;;;;;;;8.77;2.40;;;;;;;;;;5056550;28;20086;-61
2022/10/02 15:24:39;;;;;;;7.77;1.90;;;;;;;;;;5052166;28;20049;-61
2022/10/02 15:27:08;;;;;;;11.65;2.20;;;;;;;;;;5065444;28;20063;-61
2022/10/02 15:29:37;;;;;;;12.90;2.67;;;;;;;;;;5056644;28;20037;-61
2022/10/02 15:32:07;;;;;;;7.63;2.27;;;;;;;;;;5056537;28;20094;-60
2022/10/02 15:34:45;;;;;;;9.23;2.20;;;;;;;;;;5054404;28;20110;-61